Impacts TAF Board
For situational awareness. Not to be used for flight planning purposes.
IDs:

KSFO - San Francisco Intl, CA, US

Issued at 2340 UTC 04 Jul 2022
Updated at 2344 UTC 04 Jul 2022
Potential Impact None Slight Moderate High
Time2256Z 05/00Z 05/01Z 05/02Z 05/03Z 05/04Z 05/05Z 05/06Z 05/07Z 05/08Z 05/09Z 05/10Z 05/11Z 05/12Z>>
Type OBS PRVL PRVL PRVL PRVL PRVL PRVL PRVL PRVL PRVL PRVL PRVL PRVL PRVL
VIS 10 >6 >6 >6 >6 >6 >6 >6 >6 >6 >6 >6 >6 >6
CIG 200 100 100 100 100 14 14 14 14 14 12 12 12 12
Cover BKN BKN BKN BKN BKN BKN BKN BKN BKN BKN OVC OVC OVC OVC
FltCat VFR VFR VFR VFR VFR MVFR MVFR MVFR MVFR MVFR MVFR MVFR MVFR MVFR
WX -- -- -- -- -- -- -- -- -- -- -- -- -- --
WDir 310 300 300 300 300 250 250 250 250 250 VRB VRB VRB VRB
WSpd 14 17 17 17 17 6 6 6 6 6 4 4 4 4
WGst -- -- -- -- -- -- -- -- -- -- -- -- -- --
WSHgt -- -- -- -- -- -- -- -- -- -- -- -- -- --
WSDir -- -- -- -- -- -- -- -- -- -- -- -- -- --
WSSpd -- -- -- -- -- -- -- -- -- -- -- -- -- --
Raw TAF
KSFO 042340Z 0500/0606 30017KT P6SM FEW035 BKN100
  FM050400 25006KT P6SM BKN014 BKN025
  FM050900 VRB04KT P6SM OVC012
  FM051600 VRB05KT P6SM SCT020
  FM052000 25012KT P6SM BKN050
  FM060400 26010KT P6SM BKN030


Raw METAR
KSFO 042256Z 31014KT 10SM FEW035 SCT100 BKN200 24/14 A2996 RMK AO2 SLP145 T02390144
KSFO 042156Z 06009KT 10SM FEW035 BKN100 23/16 A2996 RMK AO2 SLP146 T02280156
KSFO 042056Z 07008KT 10SM FEW019 BKN100 21/15 A2998 RMK AO2 SLP150 T02060150 58004

METAR Board
Radar Display
Forecast Discussion
For situational awareness. Not to be used for flight planning purposes.